Vernicos Master — SVA2352 — position and weather

sailwx.info

Track history (hours):
 
Tides and Currents Weather Stations Pressure Air Temp Water Temp Dewpoint Dewpoint Depression Visibility Wind Speed Wind Dir Waves Ship Positions

Vernicos Master

Last reported at 2016-Jul-26 07:33 UTC. Time now 2016-Jul-26 08:24 UTC.
Position N 40°38' E 022°53'.

Length 28 m; draft 3.8 m.

Type: Tug. MMSI: 240917000.

Date/timePositionNaut miles runAvg speedWind from/ knotsBaromVisibWave heightAir tempDewpointWater temp
2016-Jul-26 07:33N 40°38' E 022°53'2 1.7
2016-Jul-26 06:33N 40°38' E 022°56'0 0.0
2016-Jul-26 05:33N 40°38' E 022°56'0 0.0
2016-Jul-26 04:33N 40°38' E 022°56'0 0.0
2016-Jul-26 03:33N 40°38' E 022°56'0 0.0
2016-Jul-26 02:33N 40°38' E 022°56'0 0.0
2016-Jul-26 01:33N 40°38' E 022°56'0 0.0
2016-Jul-26 00:33N 40°38' E 022°56'0 0.0
2016-Jul-25 23:33N 40°38' E 022°56'0 0.0
2016-Jul-25 22:33N 40°38' E 022°56'1 0.6
2016-Jul-25 21:33N 40°38' E 022°55'1 0.2
2016-Jul-25 18:33N 40°38' E 022°56'2 1.5
2016-Jul-25 17:33N 40°37' E 022°54'1 0.8
2016-Jul-25 16:33N 40°38' E 022°54'1 0.7
2016-Jul-25 15:34N 40°38' E 022°54'1 0.6
2016-Jul-25 14:33N 40°38' E 022°54'1 0.6
2016-Jul-25 13:33N 40°38' E 022°53'0 0.5
2016-Jul-25 12:33N 40°38' E 022°53'0 0.0
2016-Jul-25 11:33N 40°38' E 022°53'0 0.0
2016-Jul-25 10:33N 40°38' E 022°53'0 0.0
2016-Jul-25 09:33N 40°38' E 022°53'0 0.0
2016-Jul-25 08:33N 40°38' E 022°53'0 0.0
2016-Jul-25 07:33N 40°38' E 022°53'0 0.0
2016-Jul-25 06:33N 40°38' E 022°53'0 0.0
2016-Jul-25 05:33N 40°38' E 022°53'0 0.0
2016-Jul-25 04:33N 40°38' E 022°53'0 0.0
2016-Jul-25 03:33N 40°38' E 022°53'0 0.0
2016-Jul-25 02:33N 40°38' E 022°53'0 0.0
2016-Jul-25 01:33N 40°38' E 022°53'0 0.0
2016-Jul-25 00:33N 40°38' E 022°53'0 0.0
2016-Jul-24 23:33N 40°38' E 022°53'0 0.0
2016-Jul-24 22:33N 40°38' E 022°53'0 0.0
2016-Jul-24 21:33N 40°38' E 022°53'0 0.0
2016-Jul-24 20:33N 40°38' E 022°53'0 0.0
2016-Jul-24 19:33N 40°38' E 022°53'0 0.0
2016-Jul-24 18:33N 40°38' E 022°53'0 0.0
2016-Jul-24 17:33N 40°38' E 022°53'0 0.0
2016-Jul-24 16:33N 40°38' E 022°53'0 0.0
2016-Jul-24 15:33N 40°38' E 022°53'0 0.0
2016-Jul-24 14:33N 40°38' E 022°53'0 0.4
2016-Jul-24 13:33N 40°38' E 022°53'0 0.3
2016-Jul-24 12:33N 40°38' E 022°54'0 0.4
2016-Jul-24 11:33N 40°38' E 022°54'1 0.7
2016-Jul-24 10:33N 40°38' E 022°53'0 0.0
2016-Jul-24 09:33N 40°38' E 022°53'0 0.0
2016-Jul-24 08:33N 40°38' E 022°53'2 1.7
2016-Jul-24 07:33N 40°38' E 022°55'0 0.0
2016-Jul-23 12:33N 40°38' E 022°56'1 1.0
2016-Jul-23 11:33N 40°38' E 022°54'0 0.4
2016-Jul-23 10:33N 40°38' E 022°55'1 0.6
2016-Jul-23 09:33N 40°38' E 022°56'0 0.0
2016-Jul-23 08:33N 40°38' E 022°56'0 0.0
2016-Jul-23 07:32N 40°38' E 022°56'0 0.0
2016-Jul-22 10:23N 40°38' E 022°56'2 2.1
2016-Jul-22 09:34N 40°38' E 022°53'0 0.2
2016-Jul-22 08:33N 40°38' E 022°54'0 0.0
2016-Jul-22 07:33N 40°38' E 022°54'0 0.0
2016-Jul-22 05:33N 40°38' E 022°54'0 0.0
2016-Jul-22 04:33N 40°38' E 022°54'0 0.0
2016-Jul-22 03:33N 40°38' E 022°54'2 1.6
2016-Jul-22 02:33N 40°38' E 022°56'0 0.0
2016-Jul-21 16:06N 40°38' E 022°56'0 0.0
2016-Jul-21 15:33N 40°38' E 022°56'1 1.2
2016-Jul-21 14:33N 40°38' E 022°54'1 0.8
2016-Jul-21 13:33N 40°38' E 022°53'0 0.0
2016-Jul-21 12:34N 40°38' E 022°53'0 0.0
2016-Jul-21 11:34N 40°38' E 022°53'0 0.0
2016-Jul-21 10:34N 40°38' E 022°53'0 0.0
2016-Jul-21 09:34N 40°38' E 022°53'0 0.0
2016-Jul-21 08:34N 40°38' E 022°53'0 0.0
2016-Jul-21 07:33N 40°38' E 022°53'0 0.0
2016-Jul-21 06:33N 40°38' E 022°53'0 0.5
2016-Jul-21 05:33N 40°38' E 022°53'1 1.3
2016-Jul-21 04:33N 40°38' E 022°55'2 1.7
2016-Jul-21 03:33N 40°36' E 022°56'2 0.2
2016-Jul-20 16:27N 40°38' E 022°56'0 0.4
2016-Jul-20 15:33N 40°38' E 022°55'0 0.0
2016-Jul-20 06:25N 40°38' E 022°56'1 1.2
2016-Jul-20 05:34N 40°38' E 022°54'1 1.1
2016-Jul-20 04:34N 40°37' E 022°55'1 1.3
2016-Jul-20 03:33N 40°38' E 022°56'0 0.0
2016-Jul-18 11:33N 40°38' E 022°56'0 0.0
2016-Jul-18 10:33N 40°38' E 022°56'2 1.6
2016-Jul-18 09:33N 40°38' E 022°54'0 0.2
2016-Jul-18 08:33N 40°38' E 022°53'0 0.1
2016-Jul-18 07:33N 40°37' E 022°53'1 0.5
2016-Jul-18 06:33N 40°38' E 022°53'0 0.0
2016-Jul-18 05:33N 40°38' E 022°53'1 1.0
2016-Jul-18 04:33N 40°38' E 022°54'1 0.5
2016-Jul-18 03:33N 40°38' E 022°55'1 0.0
2016-Jul-17 11:09N 40°38' E 022°56'1 2.4
2016-Jul-17 10:33N 40°38' E 022°54'1 0.6
2016-Jul-17 09:33N 40°38' E 022°53'0 0.0
2016-Jul-17 08:33N 40°38' E 022°53'0 0.0
2016-Jul-17 07:33N 40°38' E 022°53'0 0.0
2016-Jul-17 06:34N 40°38' E 022°53'0 0.0
2016-Jul-17 04:34N 40°38' E 022°53'0 0.0
2016-Jul-17 03:34N 40°38' E 022°53'2 0.1
2016-Jul-16 07:33N 40°38' E 022°56'  
Track history (hours):
 
Tides and Currents Weather Stations Pressure Air Temp Water Temp Dewpoint Dewpoint Depression Visibility Wind Speed Wind Dir Waves Ship Positions

Vernicos Master

Last reported at 2016-Jul-26 07:33 UTC. Time now 2016-Jul-26 08:24 UTC.
Position N 40°38' E 022°53'.

Length 28 m; draft 3.8 m.

Type: Tug. MMSI: 240917000.

Date/timePositionNaut miles runAvg speedWind from/ knotsBaromVisibWave heightAir tempDewpointWater temp
2016-Jul-26 07:33N 40°38' E 022°53'2 1.7
2016-Jul-26 06:33N 40°38' E 022°56'0 0.0
2016-Jul-26 05:33N 40°38' E 022°56'0 0.0
2016-Jul-26 04:33N 40°38' E 022°56'0 0.0
2016-Jul-26 03:33N 40°38' E 022°56'0 0.0
2016-Jul-26 02:33N 40°38' E 022°56'0 0.0
2016-Jul-26 01:33N 40°38' E 022°56'0 0.0
2016-Jul-26 00:33N 40°38' E 022°56'0 0.0
2016-Jul-25 23:33N 40°38' E 022°56'0 0.0
2016-Jul-25 22:33N 40°38' E 022°56'1 0.6
2016-Jul-25 21:33N 40°38' E 022°55'1 0.2
2016-Jul-25 18:33N 40°38' E 022°56'2 1.5
2016-Jul-25 17:33N 40°37' E 022°54'1 0.8
2016-Jul-25 16:33N 40°38' E 022°54'1 0.7
2016-Jul-25 15:34N 40°38' E 022°54'1 0.6
2016-Jul-25 14:33N 40°38' E 022°54'1 0.6
2016-Jul-25 13:33N 40°38' E 022°53'0 0.5
2016-Jul-25 12:33N 40°38' E 022°53'0 0.0
2016-Jul-25 11:33N 40°38' E 022°53'0 0.0
2016-Jul-25 10:33N 40°38' E 022°53'0 0.0
2016-Jul-25 09:33N 40°38' E 022°53'0 0.0
2016-Jul-25 08:33N 40°38' E 022°53'0 0.0
2016-Jul-25 07:33N 40°38' E 022°53'0 0.0
2016-Jul-25 06:33N 40°38' E 022°53'0 0.0
2016-Jul-25 05:33N 40°38' E 022°53'0 0.0
2016-Jul-25 04:33N 40°38' E 022°53'0 0.0
2016-Jul-25 03:33N 40°38' E 022°53'0 0.0
2016-Jul-25 02:33N 40°38' E 022°53'0 0.0
2016-Jul-25 01:33N 40°38' E 022°53'0 0.0
2016-Jul-25 00:33N 40°38' E 022°53'0 0.0
2016-Jul-24 23:33N 40°38' E 022°53'0 0.0
2016-Jul-24 22:33N 40°38' E 022°53'0 0.0
2016-Jul-24 21:33N 40°38' E 022°53'0 0.0
2016-Jul-24 20:33N 40°38' E 022°53'0 0.0
2016-Jul-24 19:33N 40°38' E 022°53'0 0.0
2016-Jul-24 18:33N 40°38' E 022°53'0 0.0
2016-Jul-24 17:33N 40°38' E 022°53'0 0.0
2016-Jul-24 16:33N 40°38' E 022°53'0 0.0
2016-Jul-24 15:33N 40°38' E 022°53'0 0.0
2016-Jul-24 14:33N 40°38' E 022°53'0 0.4
2016-Jul-24 13:33N 40°38' E 022°53'0 0.3
2016-Jul-24 12:33N 40°38' E 022°54'0 0.4
2016-Jul-24 11:33N 40°38' E 022°54'1 0.7
2016-Jul-24 10:33N 40°38' E 022°53'0 0.0
2016-Jul-24 09:33N 40°38' E 022°53'0 0.0
2016-Jul-24 08:33N 40°38' E 022°53'2 1.7
2016-Jul-24 07:33N 40°38' E 022°55'0 0.0
2016-Jul-23 12:33N 40°38' E 022°56'1 1.0
2016-Jul-23 11:33N 40°38' E 022°54'0 0.4
2016-Jul-23 10:33N 40°38' E 022°55'1 0.6
2016-Jul-23 09:33N 40°38' E 022°56'0 0.0
2016-Jul-23 08:33N 40°38' E 022°56'0 0.0
2016-Jul-23 07:32N 40°38' E 022°56'0 0.0
2016-Jul-22 10:23N 40°38' E 022°56'2 2.1
2016-Jul-22 09:34N 40°38' E 022°53'0 0.2
2016-Jul-22 08:33N 40°38' E 022°54'0 0.0
2016-Jul-22 07:33N 40°38' E 022°54'0 0.0
2016-Jul-22 05:33N 40°38' E 022°54'0 0.0
2016-Jul-22 04:33N 40°38' E 022°54'0 0.0
2016-Jul-22 03:33N 40°38' E 022°54'2 1.6
2016-Jul-22 02:33N 40°38' E 022°56'0 0.0
2016-Jul-21 16:06N 40°38' E 022°56'0 0.0
2016-Jul-21 15:33N 40°38' E 022°56'1 1.2
2016-Jul-21 14:33N 40°38' E 022°54'1 0.8
2016-Jul-21 13:33N 40°38' E 022°53'0 0.0
2016-Jul-21 12:34N 40°38' E 022°53'0 0.0
2016-Jul-21 11:34N 40°38' E 022°53'0 0.0
2016-Jul-21 10:34N 40°38' E 022°53'0 0.0
2016-Jul-21 09:34N 40°38' E 022°53'0 0.0
2016-Jul-21 08:34N 40°38' E 022°53'0 0.0
2016-Jul-21 07:33N 40°38' E 022°53'0 0.0
2016-Jul-21 06:33N 40°38' E 022°53'0 0.5
2016-Jul-21 05:33N 40°38' E 022°53'1 1.3
2016-Jul-21 04:33N 40°38' E 022°55'2 1.7
2016-Jul-21 03:33N 40°36' E 022°56'2 0.2
2016-Jul-20 16:27N 40°38' E 022°56'0 0.4
2016-Jul-20 15:33N 40°38' E 022°55'0 0.0
2016-Jul-20 06:25N 40°38' E 022°56'1 1.2
2016-Jul-20 05:34N 40°38' E 022°54'1 1.1
2016-Jul-20 04:34N 40°37' E 022°55'1 1.3
2016-Jul-20 03:33N 40°38' E 022°56'0 0.0
2016-Jul-18 11:33N 40°38' E 022°56'0 0.0
2016-Jul-18 10:33N 40°38' E 022°56'2 1.6
2016-Jul-18 09:33N 40°38' E 022°54'0 0.2
2016-Jul-18 08:33N 40°38' E 022°53'0 0.1
2016-Jul-18 07:33N 40°37' E 022°53'1 0.5
2016-Jul-18 06:33N 40°38' E 022°53'0 0.0
2016-Jul-18 05:33N 40°38' E 022°53'1 1.0
2016-Jul-18 04:33N 40°38' E 022°54'1 0.5
2016-Jul-18 03:33N 40°38' E 022°55'1 0.0
2016-Jul-17 11:09N 40°38' E 022°56'1 2.4
2016-Jul-17 10:33N 40°38' E 022°54'1 0.6
2016-Jul-17 09:33N 40°38' E 022°53'0 0.0
2016-Jul-17 08:33N 40°38' E 022°53'0 0.0
2016-Jul-17 07:33N 40°38' E 022°53'0 0.0
2016-Jul-17 06:34N 40°38' E 022°53'0 0.0
2016-Jul-17 04:34N 40°38' E 022°53'0 0.0
2016-Jul-17 03:34N 40°38' E 022°53'2 0.1
2016-Jul-16 07:33N 40°38' E 022°56'  

Dump ship's entire track history